Time;durP1;ratioP1;P1;durP2;ratioP2;P2;SDS_P1;SDS_P2;PMS_P1;PMS_P2;Temp;Humidity;BMP_temperature;BMP_pressure;BME280_temperature;BME280_humidity;BME280_pressure;Samples;Min_cycle;Max_cycle;Signal;HPM_P1;HPM_P2
2021/08/23 00:00:54;;;;;;;5.53;4.53;;;;;;;18.51;76.11;96718.45;127640;1093;24869;-82
2021/08/23 00:03:25;;;;;;;6.25;4.25;;;;;;;18.50;76.32;96719.56;127651;1093;24551;-84
2021/08/23 00:05:57;;;;;;;5.15;4.03;;;;;;;18.52;76.33;96709.28;127677;1093;24405;-82
2021/08/23 00:08:30;;;;;;;7.98;5.25;;;;;;;18.51;76.06;96702.34;127551;1093;22832;-82
2021/08/23 00:11:01;;;;;;;6.88;5.15;;;;;;;18.51;76.15;96705.02;127561;1093;23858;-82
2021/08/23 00:13:33;;;;;;;4.90;4.33;;;;;;;18.52;75.93;96707.38;127688;1093;34448;-82
2021/08/23 00:16:04;;;;;;;6.50;4.35;;;;;;;18.54;75.90;96698.99;127965;1093;28746;-83
2021/08/23 00:18:36;;;;;;;8.10;5.78;;;;;;;18.53;75.75;96692.05;127913;1093;25222;-82
2021/08/23 00:21:12;;;;;;;7.35;5.15;;;;;;;18.54;75.84;96690.94;127956;1092;35828;-83
2021/08/23 00:23:50;;;;;;;6.20;5.05;;;;;;;18.48;75.53;96689.58;127933;1093;26255;-82
2021/08/23 00:26:23;;;;;;;6.63;4.98;;;;;;;18.34;75.65;96693.30;127946;1093;65391;-82
2021/08/23 00:28:54;;;;;;;6.53;5.08;;;;;;;18.18;75.85;96686.14;127640;1092;25865;-82
2021/08/23 00:31:25;;;;;;;6.88;5.43;;;;;;;18.06;76.26;96695.67;127640;1093;24399;-83
2021/08/23 00:33:57;;;;;;;7.13;5.28;;;;;;;18.00;76.48;96690.80;128063;1093;27627;-82
2021/08/23 00:36:29;;;;;;;9.13;5.33;;;;;;;17.95;76.72;96689.09;127930;1093;32197;-81
2021/08/23 00:39:00;;;;;;;7.17;5.70;;;;;;;17.94;76.82;96687.52;127997;1093;25792;-82
2021/08/23 00:41:33;;;;;;;5.63;4.78;;;;;;;17.94;76.67;96686.73;127976;1093;23546;-83
2021/08/23 00:44:06;;;;;;;6.75;4.93;;;;;;;17.96;76.90;96695.24;127971;1093;25526;-82
2021/08/23 00:46:38;;;;;;;7.50;5.40;;;;;;;17.95;76.93;96691.78;127943;1093;24703;-82
2021/08/23 00:49:09;;;;;;;7.08;5.13;;;;;;;17.96;77.02;96698.71;127576;1093;24001;-83
2021/08/23 00:51:41;;;;;;;7.13;5.55;;;;;;;18.01;77.02;96689.69;127961;1093;22833;-82
2021/08/23 00:54:12;;;;;;;6.00;4.65;;;;;;;18.09;77.11;96688.86;127984;1092;23821;-82
2021/08/23 00:56:44;;;;;;;5.98;4.75;;;;;;;18.11;77.12;96692.00;127956;1093;23244;-82
2021/08/23 00:59:15;;;;;;;5.75;5.10;;;;;;;18.02;77.08;96686.70;127984;1093;24289;-82
2021/08/23 01:01:55;;;;;;;11.93;6.43;;;;;;;17.95;77.31;96691.78;127620;1093;26926;-83
2021/08/23 01:04:32;;;;;;;7.23;5.23;;;;;;;17.92;77.59;96688.95;128012;1093;30060;-82
2021/08/23 01:07:07;;;;;;;6.58;4.88;;;;;;;17.90;77.63;96688.50;127947;1092;34452;-83
2021/08/23 01:09:43;;;;;;;8.88;5.40;;;;;;;17.90;77.74;96685.81;128002;1093;23247;-83
2021/08/23 01:12:16;;;;;;;7.00;4.83;;;;;;;17.90;77.89;96683.14;127977;1093;25596;-82
2021/08/23 01:14:48;;;;;;;8.50;5.50;;;;;;;17.91;77.86;96674.77;127952;1093;23879;-82
2021/08/23 01:17:19;;;;;;;8.08;5.48;;;;;;;17.82;78.35;96674.01;127562;1093;25014;-82
2021/08/23 01:20:00;;;;;;;6.80;5.18;;;;;;;17.77;78.46;96674.20;127543;1093;29097;-83
2021/08/23 01:22:36;;;;;;;7.75;5.15;;;;;;;17.71;78.69;96681.63;127612;1093;24991;-82
2021/08/23 01:25:10;;;;;;;8.48;5.80;;;;;;;17.68;78.71;96674.23;127967;1093;38776;-83
2021/08/23 01:28:00;;;;;;;7.18;5.05;;;;;;;17.76;79.04;96669.95;127574;1091;27201;-83
2021/08/23 01:30:41;;;;;;;8.13;5.40;;;;;;;17.74;78.89;96675.64;127964;1093;39598;-84
2021/08/23 01:33:13;;;;;;;13.35;5.70;;;;;;;17.66;79.18;96671.05;127949;1093;27912;-82
2021/08/23 01:35:44;;;;;;;8.00;5.03;;;;;;;17.62;79.30;96667.45;127550;1093;23501;-82
2021/08/23 01:38:17;;;;;;;7.20;5.68;;;;;;;17.61;79.47;96663.20;127556;1093;44878;-82
2021/08/23 01:40:48;;;;;;;6.57;5.13;;;;;;;17.60;79.34;96650.13;127611;1092;24146;-83
2021/08/23 01:43:20;;;;;;;6.83;5.30;;;;;;;17.62;79.55;96651.37;127997;1093;22807;-82
2021/08/23 01:45:51;;;;;;;10.58;5.68;;;;;;;17.61;79.75;96649.80;127969;1093;29281;-83
2021/08/23 01:48:23;;;;;;;8.27;5.30;;;;;;;17.62;79.85;96648.69;127980;1093;29638;-82
2021/08/23 01:50:54;;;;;;;7.23;5.73;;;;;;;17.58;79.91;96653.09;128040;1093;22959;-82
2021/08/23 01:53:26;;;;;;;6.80;5.18;;;;;;;17.58;80.09;96658.45;127772;1093;22842;-83
2021/08/23 01:55:57;;;;;;;7.43;4.95;;;;;;;17.55;80.43;96639.56;127709;1093;24518;-82
2021/08/23 01:58:29;;;;;;;6.40;5.10;;;;;;;17.52;80.60;96646.36;127567;1093;22845;-81
2021/08/23 02:01:00;;;;;;;6.50;4.85;;;;;;;17.50;80.61;96645.89;127581;1092;23697;-82
2021/08/23 02:03:32;;;;;;;8.00;5.40;;;;;;;17.55;80.70;96640.34;127608;1093;25612;-82
2021/08/23 02:06:03;;;;;;;6.08;5.03;;;;;;;17.57;80.92;96640.80;127568;1093;25550;-82
2021/08/23 02:08:34;;;;;;;9.23;5.33;;;;;;;17.55;81.17;96643.03;127974;1093;24396;-82
2021/08/23 02:11:06;;;;;;;6.63;5.08;;;;;;;17.52;81.25;96643.67;127992;1093;24148;-82
2021/08/23 02:13:38;;;;;;;6.40;5.18;;;;;;;17.48;81.29;96635.50;127864;1092;27340;-82
2021/08/23 02:16:10;;;;;;;7.63;5.40;;;;;;;17.54;81.08;96637.98;127539;1093;26801;-82
2021/08/23 02:18:41;;;;;;;5.70;4.93;;;;;;;17.63;81.19;96628.02;127594;1093;26453;-83
2021/08/23 02:21:12;;;;;;;6.38;5.28;;;;;;;17.64;81.15;96630.38;127601;1093;25254;-82
2021/08/23 02:23:44;;;;;;;7.60;5.25;;;;;;;17.67;80.89;96623.58;127680;1093;26493;-83
2021/08/23 02:26:15;;;;;;;10.83;5.83;;;;;;;17.69;81.08;96622.17;127638;1093;26261;-82
2021/08/23 02:28:47;;;;;;;6.68;5.20;;;;;;;17.62;81.32;96621.88;127564;1093;31240;-83
2021/08/23 02:31:18;;;;;;;7.25;5.18;;;;;;;17.57;81.56;96613.21;127711;1093;25804;-82
2021/08/23 02:33:50;;;;;;;7.48;5.48;;;;;;;17.54;81.63;96614.65;127691;1093;26322;-83
2021/08/23 02:36:21;;;;;;;8.23;5.60;;;;;;;17.56;81.65;96609.75;127634;1093;26496;-82
2021/08/23 02:38:52;;;;;;;6.58;4.70;;;;;;;17.55;81.60;96616.22;127577;1093;24813;-82
2021/08/23 02:41:24;;;;;;;8.17;5.87;;;;;;;17.58;81.20;96606.74;127654;1093;22802;-82
2021/08/23 02:43:55;;;;;;;6.75;5.33;;;;;;;17.61;81.11;96609.58;127574;1093;34095;-83
2021/08/23 02:46:26;;;;;;;8.48;6.03;;;;;;;17.62;81.04;96605.01;127684;1093;23502;-82
2021/08/23 02:48:58;;;;;;;7.65;5.88;;;;;;;17.60;80.84;96608.02;127620;1093;27149;-82
2021/08/23 02:51:29;;;;;;;7.20;5.68;;;;;;;17.63;80.70;96598.53;127569;1093;28379;-81
2021/08/23 02:54:01;;;;;;;8.43;5.85;;;;;;;17.64;80.42;96598.20;127567;1093;26165;-82
2021/08/23 02:56:32;;;;;;;6.35;4.98;;;;;;;17.68;80.29;96604.52;127587;1093;29216;-82
2021/08/23 02:59:03;;;;;;;6.15;4.93;;;;;;;17.70;80.18;96599.61;127613;1093;27816;-82
2021/08/23 03:01:35;;;;;;;6.95;5.05;;;;;;;17.70;79.99;96599.61;127620;1093;23799;-82
2021/08/23 03:04:06;;;;;;;8.10;5.60;;;;;;;17.71;79.82;96603.86;127605;1093;27116;-82
2021/08/23 03:06:38;;;;;;;8.70;5.30;;;;;;;17.76;79.83;96606.38;127624;1092;23207;-82
2021/08/23 03:09:09;;;;;;;6.93;5.20;;;;;;;17.79;79.93;96605.72;127573;1093;26871;-83
2021/08/23 03:11:40;;;;;;;6.65;5.18;;;;;;;17.82;80.01;96596.23;127562;1093;25141;-83
2021/08/23 03:14:12;;;;;;;6.75;5.50;;;;;;;17.76;79.80;96592.97;127791;1093;23260;-83
2021/08/23 03:16:43;;;;;;;8.80;6.10;;;;;;;17.66;79.76;96595.20;127994;1093;27485;-83
2021/08/23 03:19:23;;;;;;;7.33;5.23;;;;;;;17.60;80.28;96586.56;127624;1092;33663;-83
2021/08/23 03:21:54;;;;;;;6.48;5.58;;;;;;;17.58;80.64;96591.44;127638;1093;23730;-82
2021/08/23 03:24:26;;;;;;;8.63;5.83;;;;;;;17.59;80.93;96592.23;128021;1093;24075;-82
2021/08/23 03:26:58;;;;;;;8.58;6.20;;;;;;;17.60;81.02;96601.87;127743;1093;22832;-82
2021/08/23 03:29:29;;;;;;;11.25;6.28;;;;;;;17.59;81.13;96606.41;127565;1092;27880;-82
2021/08/23 03:32:00;;;;;;;7.88;6.08;;;;;;;17.59;81.23;96605.63;127949;1093;29496;-81
2021/08/23 03:34:32;;;;;;;7.43;5.65;;;;;;;17.62;81.56;96605.01;127541;1093;33839;-82
2021/08/23 03:37:03;;;;;;;6.90;5.43;;;;;;;17.62;81.34;96611.16;127573;1093;27278;-83
2021/08/23 03:39:35;;;;;;;8.15;5.45;;;;;;;17.67;81.66;96600.23;127706;1093;25998;-82
2021/08/23 03:42:07;;;;;;;8.05;5.43;;;;;;;17.63;81.20;96610.05;127666;1093;24771;-82
2021/08/23 03:44:38;;;;;;;8.50;6.18;;;;;;;17.52;81.12;96614.19;127959;1093;23174;-83
2021/08/23 03:47:10;;;;;;;7.53;5.78;;;;;;;17.49;81.46;96614.84;127553;1093;30718;-83
2021/08/23 03:49:41;;;;;;;7.45;6.53;;;;;;;17.50;81.68;96619.09;127609;1093;22815;-82
2021/08/23 03:52:12;;;;;;;8.88;6.13;;;;;;;17.54;81.86;96621.91;127562;1093;24848;-82
2021/08/23 03:54:44;;;;;;;8.43;5.98;;;;;;;17.57;82.19;96618.58;127602;1093;24620;-82
2021/08/23 03:57:15;;;;;;;9.03;6.15;;;;;;;17.63;82.51;96622.66;127560;1092;27630;-82
2021/08/23 03:59:47;;;;;;;8.43;6.20;;;;;;;17.67;82.77;96624.36;127933;1093;47752;-82
2021/08/23 04:02:19;;;;;;;9.33;6.10;;;;;;;17.63;82.00;96617.30;127981;1093;22937;-82
2021/08/23 04:04:50;;;;;;;9.23;5.80;;;;;;;17.64;82.05;96627.70;127977;1093;22890;-82
2021/08/23 04:07:22;;;;;;;9.48;5.63;;;;;;;17.66;81.87;96632.73;127600;1093;26246;-83
2021/08/23 04:09:54;;;;;;;8.00;5.93;;;;;;;17.66;81.92;96632.73;127582;1093;24054;-83
2021/08/23 04:12:25;;;;;;;8.95;6.23;;;;;;;17.66;82.00;96633.52;128002;1093;66990;-82
2021/08/23 04:14:57;;;;;;;8.73;5.73;;;;;;;17.65;82.24;96631.95;127631;1093;24536;-83
2021/08/23 04:17:28;;;;;;;8.00;5.68;;;;;;;17.64;82.50;96635.74;128032;1093;26731;-83
2021/08/23 04:20:02;;;;;;;8.75;6.18;;;;;;;17.59;82.53;96641.27;127985;1093;23268;-82
2021/08/23 04:22:33;;;;;;;8.33;6.90;;;;;;;17.53;82.89;96639.88;127595;1093;23955;-83
2021/08/23 04:25:07;;;;;;;8.03;6.10;;;;;;;17.46;83.07;96648.44;127581;1093;25440;-83
2021/08/23 04:27:39;;;;;;;8.70;6.13;;;;;;;17.36;83.78;96646.10;127929;1093;25278;-83
2021/08/23 04:30:12;;;;;;;10.13;6.70;;;;;;;17.30;83.88;96649.26;127664;1092;23596;-83
2021/08/23 04:32:43;;;;;;;8.13;6.10;;;;;;;17.26;84.12;96640.30;127620;1093;24451;-84
2021/08/23 04:35:15;;;;;;;10.48;7.05;;;;;;;17.23;84.51;96643.62;127572;1093;27117;-82
2021/08/23 04:37:46;;;;;;;10.18;6.85;;;;;;;17.20;84.78;96637.02;127981;1093;26708;-83
2021/08/23 04:40:18;;;;;;;9.20;6.75;;;;;;;17.18;85.16;96653.41;128008;1092;26257;-84
2021/08/23 04:42:49;;;;;;;11.58;7.05;;;;;;;17.17;85.41;96648.34;127580;1093;27303;-84
2021/08/23 04:45:21;;;;;;;8.63;6.40;;;;;;;17.15;86.24;96645.98;127976;1093;23200;-83
2021/08/23 04:47:52;;;;;;;8.25;6.55;;;;;;;17.07;86.93;96644.13;127558;1093;24164;-83
2021/08/23 04:50:24;;;;;;;8.20;6.65;;;;;;;17.06;87.32;96650.59;127674;1092;23633;-83
2021/08/23 04:52:55;;;;;;;8.95;6.98;;;;;;;17.07;87.68;96649.49;127654;1093;24657;-83
2021/08/23 04:55:27;;;;;;;8.68;6.25;;;;;;;17.08;87.52;96651.06;128041;1093;23077;-83
2021/08/23 04:57:58;;;;;;;8.03;6.05;;;;;;;17.10;87.55;96659.56;127620;1093;22792;-83
2021/08/23 05:00:30;;;;;;;9.00;6.78;;;;;;;17.12;87.34;96651.98;127640;1093;24676;-82
2021/08/23 05:03:01;;;;;;;7.58;6.30;;;;;;;17.17;87.11;96664.42;127601;1093;36893;-82
2021/08/23 05:05:33;;;;;;;8.50;6.58;;;;;;;17.19;86.86;96656.88;127821;1093;25970;-83
2021/08/23 05:08:04;;;;;;;8.43;6.45;;;;;;;17.19;87.13;96657.66;128020;1093;23713;-84
2021/08/23 05:10:36;;;;;;;9.73;6.83;;;;;;;17.23;87.06;96668.52;127555;1093;24724;-83
2021/08/23 05:13:07;;;;;;;7.45;6.30;;;;;;;17.25;87.20;96668.20;127913;1093;67319;-83
2021/08/23 05:15:39;;;;;;;9.50;6.27;;;;;;;17.26;87.15;96667.09;127961;1093;27269;-83
2021/08/23 05:18:11;;;;;;;8.53;6.03;;;;;;;17.27;87.16;96661.41;127959;1093;28722;-84
2021/08/23 05:20:42;;;;;;;8.45;6.15;;;;;;;17.27;87.19;96676.70;127740;1093;28378;-84
2021/08/23 05:23:14;;;;;;;7.77;5.83;;;;;;;17.27;87.10;96672.13;127580;1093;23715;-83
2021/08/23 05:25:45;;;;;;;10.10;6.33;;;;;;;17.33;87.10;96678.12;127518;1093;57069;-84
2021/08/23 05:28:17;;;;;;;8.00;6.20;;;;;;;17.39;87.01;96682.97;127588;1093;24441;-84
2021/08/23 05:30:49;;;;;;;8.15;6.63;;;;;;;17.44;86.93;96685.47;127621;1093;24508;-83
2021/08/23 05:33:20;;;;;;;8.40;6.53;;;;;;;17.47;87.05;96692.11;127654;1093;23578;-84
2021/08/23 05:35:52;;;;;;;8.10;6.00;;;;;;;17.46;86.95;96693.22;127589;1093;26203;-83
2021/08/23 05:38:23;;;;;;;9.00;6.53;;;;;;;17.50;87.24;96700.29;128010;1093;27827;-85
2021/08/23 05:40:55;;;;;;;8.85;6.43;;;;;;;17.49;87.25;96703.29;128041;1092;25959;-84
2021/08/23 05:43:27;;;;;;;9.13;6.63;;;;;;;17.49;87.25;96700.61;127645;1092;23302;-84
2021/08/23 05:46:00;;;;;;;7.98;6.45;;;;;;;17.53;87.44;96704.22;127717;1093;24080;-83
2021/08/23 05:48:32;;;;;;;8.68;6.65;;;;;;;17.50;87.29;96700.29;127572;1093;32069;-83
2021/08/23 05:51:04;;;;;;;9.60;7.00;;;;;;;17.49;87.49;96703.29;127549;1093;29255;-82
2021/08/23 05:53:36;;;;;;;7.98;5.78;;;;;;;17.47;87.26;96700.15;127576;1093;27939;-84
2021/08/23 05:56:07;;;;;;;8.73;6.60;;;;;;;17.48;87.40;96702.50;128007;1093;26283;-85
2021/08/23 05:58:39;;;;;;;9.63;6.78;;;;;;;17.49;87.58;96703.29;127931;1093;35376;-84
2021/08/23 06:01:10;;;;;;;10.00;6.55;;;;;;;17.56;87.72;96700.10;127954;1093;25038;-85
2021/08/23 06:03:42;;;;;;;8.28;6.10;;;;;;;17.50;87.54;96697.61;127576;1093;26501;-83
2021/08/23 06:06:14;;;;;;;10.28;6.48;;;;;;;17.41;87.29;96698.73;127966;1093;25393;-83
2021/08/23 06:08:46;;;;;;;7.03;5.95;;;;;;;17.36;87.45;96701.59;127960;1093;26241;-83
2021/08/23 06:11:17;;;;;;;8.33;6.58;;;;;;;17.34;87.69;96712.63;127596;1093;25262;-83
2021/08/23 06:13:49;;;;;;;7.05;5.15;;;;;;;17.39;87.95;96714.34;127647;1093;26638;-84
2021/08/23 06:16:21;;;;;;;7.85;6.25;;;;;;;17.48;88.06;96712.44;127947;1092;27169;-83
2021/08/23 06:18:52;;;;;;;9.70;6.25;;;;;;;17.53;88.16;96717.63;127648;1093;25220;-83
2021/08/23 06:21:23;;;;;;;7.00;5.50;;;;;;;17.58;88.04;96720.12;127948;1093;24907;-83
2021/08/23 06:23:55;;;;;;;7.65;5.98;;;;;;;17.61;88.21;96718.72;127598;1092;24726;-84
2021/08/23 06:26:30;;;;;;;7.75;5.88;;;;;;;17.57;87.92;96712.40;128046;1093;23248;-83
2021/08/23 06:29:01;;;;;;;7.15;5.98;;;;;;;17.54;88.09;96713.05;127533;1093;26033;-83
2021/08/23 06:31:33;;;;;;;8.03;5.40;;;;;;;17.59;88.24;96707.50;127611;1093;23584;-83
2021/08/23 06:34:05;;;;;;;6.10;4.63;;;;;;;17.61;88.57;96706.09;127696;1093;23199;-83
2021/08/23 06:36:39;;;;;;;6.10;4.60;;;;;;;17.60;88.43;96707.20;127972;1093;22826;-83
2021/08/23 06:39:11;;;;;;;5.83;4.50;;;;;;;17.64;88.55;96710.81;127949;1093;26790;-83
2021/08/23 06:41:42;;;;;;;6.53;5.35;;;;;;;17.68;88.51;96717.13;127596;1092;30401;-83
2021/08/23 06:44:14;;;;;;;7.38;5.43;;;;;;;17.75;88.62;96712.06;127572;1093;26946;-83
2021/08/23 06:46:46;;;;;;;7.38;5.40;;;;;;;17.78;88.78;96716.78;127965;1092;32741;-83
2021/08/23 06:49:18;;;;;;;7.98;6.13;;;;;;;17.85;88.85;96716.27;127599;1093;42161;-84
2021/08/23 06:51:49;;;;;;;7.13;5.98;;;;;;;17.89;88.66;96719.11;127656;1093;31469;-83
2021/08/23 06:54:21;;;;;;;8.00;5.95;;;;;;;17.95;88.80;96723.18;127596;1093;27156;-84
2021/08/23 06:56:53;;;;;;;9.73;6.25;;;;;;;17.99;88.87;96716.05;127581;1092;25651;-83
2021/08/23 06:59:27;;;;;;;7.10;5.45;;;;;;;18.02;88.63;96716.21;127678;1093;25350;-83
2021/08/23 07:01:59;;;;;;;7.25;5.23;;;;;;;18.02;88.40;96712.75;127674;1093;24544;-82
2021/08/23 07:04:30;;;;;;;5.15;4.20;;;;;;;18.01;88.55;96717.30;127966;1093;22893;-83
2021/08/23 07:07:04;;;;;;;6.83;5.15;;;;;;;17.96;88.39;96716.70;127630;1093;24044;-83
2021/08/23 07:09:36;;;;;;;7.40;6.33;;;;;;;17.85;88.21;96718.16;127591;1093;25504;-83
2021/08/23 07:12:08;;;;;;;9.13;6.50;;;;;;;17.76;87.75;96713.64;127623;1091;24497;-84
2021/08/23 07:14:40;;;;;;;9.70;5.78;;;;;;;17.70;88.42;96712.23;127524;1093;30043;-84
2021/08/23 07:17:11;;;;;;;7.48;5.25;;;;;;;17.67;88.67;96712.84;127614;1093;22827;-83
2021/08/23 07:19:43;;;;;;;7.45;5.88;;;;;;;17.69;89.06;96707.97;127944;1093;28805;-83
2021/08/23 07:22:18;;;;;;;6.78;4.60;;;;;;;17.76;89.29;96712.86;127954;1093;25361;-83
2021/08/23 07:24:51;;;;;;;5.13;4.18;;;;;;;17.73;89.21;96714.26;127967;1093;40631;-83
2021/08/23 07:27:22;;;;;;;6.07;4.23;;;;;;;17.70;89.57;96706.86;127980;1093;25186;-83
2021/08/23 07:29:55;;;;;;;6.28;4.48;;;;;;;17.69;89.63;96720.59;127546;1093;26644;-84
2021/08/23 07:32:27;;;;;;;5.93;4.40;;;;;;;17.68;89.82;96714.45;127639;1093;25443;-84
2021/08/23 07:34:59;;;;;;;6.13;4.85;;;;;;;17.70;89.88;96722.95;127681;1093;26751;-84
2021/08/23 07:37:32;;;;;;;6.38;4.18;;;;;;;17.75;90.15;96711.28;127547;1093;25859;-83
2021/08/23 07:40:07;;;;;;;6.25;4.68;;;;;;;17.79;89.91;96720.25;127988;1092;26384;-83
2021/08/23 07:42:38;;;;;;;6.53;4.40;;;;;;;17.87;89.67;96714.05;127993;1093;23630;-84
2021/08/23 07:45:14;;;;;;;4.78;3.63;;;;;;;17.97;89.53;96723.64;127586;1093;25664;-84
2021/08/23 07:47:45;;;;;;;3.85;3.00;;;;;;;18.00;88.98;96723.77;127676;1093;32930;-84
2021/08/23 07:50:17;;;;;;;4.10;3.18;;;;;;;18.00;88.26;96725.67;127989;1092;26158;-83
2021/08/23 07:52:49;;;;;;;4.38;3.13;;;;;;;18.03;88.05;96727.73;127605;1092;26251;-83
2021/08/23 07:55:20;;;;;;;3.95;3.00;;;;;;;18.05;88.10;96718.24;127590;1092;52123;-84
2021/08/23 07:57:52;;;;;;;4.60;2.90;;;;;;;18.09;87.52;96726.42;127947;1093;24987;-84
2021/08/23 08:00:24;;;;;;;3.78;2.70;;;;;;;18.10;87.76;96719.95;127954;1093;24852;-84
2021/08/23 08:02:56;;;;;;;3.18;2.70;;;;;;;18.09;87.45;96719.16;127672;1092;25890;-84
2021/08/23 08:05:28;;;;;;;4.63;3.38;;;;;;;18.11;87.28;96726.88;127669;1093;28023;-84
2021/08/23 08:07:59;;;;;;;4.43;3.37;;;;;;;18.18;87.61;96729.08;127654;1093;29913;-84
2021/08/23 08:10:31;;;;;;;4.73;3.25;;;;;;;18.22;87.53;96728.09;127550;1093;29385;-84
2021/08/23 08:13:03;;;;;;;3.90;3.03;;;;;;;18.20;87.53;96722.27;127614;1093;23432;-83
2021/08/23 08:15:35;;;;;;;5.08;3.10;;;;;;;18.21;87.65;96723.05;127593;1093;23668;-84
2021/08/23 08:18:07;;;;;;;4.28;3.20;;;;;;;18.21;87.52;96718.47;127553;1093;64010;-83
2021/08/23 08:20:38;;;;;;;4.45;3.45;;;;;;;18.26;87.63;96718.28;127635;1092;25222;-84
2021/08/23 08:23:10;;;;;;;4.23;3.27;;;;;;;18.35;87.53;96723.61;127599;1093;29298;-84
2021/08/23 08:25:41;;;;;;;4.55;3.40;;;;;;;18.45;87.49;96717.86;127591;1093;22780;-84
2021/08/23 08:28:14;;;;;;;4.20;3.10;;;;;;;18.47;87.02;96722.91;127588;1093;23552;-84
2021/08/23 08:30:52;;;;;;;3.75;3.25;;;;;;;18.45;86.78;96722.45;127558;1093;24712;-84
2021/08/23 08:33:24;;;;;;;3.78;3.10;;;;;;;18.45;86.88;96725.13;127525;1093;28484;-83
2021/08/23 08:35:59;;;;;;;4.10;3.15;;;;;;;18.47;86.90;96726.38;127615;1093;24157;-83
2021/08/23 08:38:30;;;;;;;4.58;3.23;;;;;;;18.44;86.54;96732.41;127588;1093;23087;-82
2021/08/23 08:41:03;;;;;;;4.43;3.15;;;;;;;18.42;86.68;96723.08;127574;1093;28048;-83
2021/08/23 08:43:34;;;;;;;4.43;2.73;;;;;;;18.48;86.57;96721.80;127533;1093;26682;-84
2021/08/23 08:46:07;;;;;;;4.60;3.13;;;;;;;18.44;86.40;96726.22;127593;1093;25500;-83
2021/08/23 08:48:38;;;;;;;4.00;2.90;;;;;;;18.47;86.65;96722.91;127581;1093;23645;-83
2021/08/23 08:51:13;;;;;;;3.95;3.10;;;;;;;18.40;86.56;96720.72;127613;1093;26614;-84
2021/08/23 08:53:44;;;;;;;3.63;3.00;;;;;;;18.36;86.67;96720.59;127573;1093;24396;-83
2021/08/23 08:56:16;;;;;;;4.28;2.60;;;;;;;18.34;86.52;96728.19;127596;1093;27949;-83
2021/08/23 08:58:48;;;;;;;4.30;3.28;;;;;;;18.38;86.73;96733.69;127644;1093;26408;-83
2021/08/23 09:01:20;;;;;;;4.08;3.15;;;;;;;18.38;86.82;96731.78;127588;1093;25706;-85
2021/08/23 09:03:52;;;;;;;3.50;2.70;;;;;;;18.48;86.72;96737.90;127589;1093;26244;-84
2021/08/23 09:06:24;;;;;;;3.78;2.80;;;;;;;18.49;86.29;96742.94;127643;1093;23971;-84
2021/08/23 09:08:55;;;;;;;3.38;2.75;;;;;;;18.52;86.11;96738.81;127635;1093;23410;-84
2021/08/23 09:11:27;;;;;;;3.65;2.93;;;;;;;18.54;86.24;96747.32;127657;1093;22830;-83
2021/08/23 09:14:04;;;;;;;3.83;2.95;;;;;;;18.57;86.36;96746.66;127606;1093;33359;-83
2021/08/23 09:16:38;;;;;;;3.60;2.63;;;;;;;18.53;85.93;96740.38;127642;1092;26592;-84
2021/08/23 09:19:23;;;;;;;4.38;2.80;;;;;;;18.55;86.38;96732.78;127590;1093;22815;-83
2021/08/23 09:22:06;;;;;;;3.78;2.95;;;;;;;18.59;85.81;96741.78;127225;1093;416083;-84
2021/08/23 09:24:41;;;;;;;4.13;2.95;;;;;;;18.68;85.57;96737.15;127626;1093;24383;-84
2021/08/23 09:27:15;;;;;;;3.85;2.65;;;;;;;18.70;84.99;96748.34;127630;1093;24276;-84
2021/08/23 09:29:59;;;;;;;4.25;2.68;;;;;;;18.70;85.02;96740.29;127586;1092;25217;-83
2021/08/23 09:32:33;;;;;;;2.93;2.28;;;;;;;18.58;83.05;96740.18;127613;1093;24435;-83
2021/08/23 09:35:06;;;;;;;4.65;2.30;;;;;;;18.46;82.93;96740.13;127581;1093;26454;-83
2021/08/23 09:37:37;;;;;;;3.33;2.43;;;;;;;18.46;83.37;96740.91;127601;1093;27673;-83
2021/08/23 09:40:15;;;;;;;3.25;2.48;;;;;;;18.43;83.25;96744.22;127594;1093;24936;-83
2021/08/23 09:42:56;;;;;;;3.03;2.53;;;;;;;18.43;83.41;96741.54;127592;1092;25252;-83
2021/08/23 09:45:28;;;;;;;3.40;2.63;;;;;;;18.43;83.85;96748.80;127621;1093;56186;-83
2021/08/23 09:48:04;;;;;;;3.65;2.78;;;;;;;18.38;83.87;96753.26;127638;1093;22805;-83
2021/08/23 09:50:46;;;;;;;4.23;2.53;;;;;;;18.39;84.00;96754.83;127545;1092;31910;-83
2021/08/23 09:53:20;;;;;;;4.93;2.83;;;;;;;18.40;83.91;96755.62;127576;1093;30404;-83
2021/08/23 09:55:53;;;;;;;4.08;2.50;;;;;;;18.43;84.08;96751.48;127585;1092;24570;-83
2021/08/23 09:58:26;;;;;;;4.65;2.38;;;;;;;18.45;84.10;96752.77;127631;1093;29429;-83
2021/08/23 10:00:58;;;;;;;3.73;2.48;;;;;;;18.42;83.84;96739.18;127661;1092;27250;-83
2021/08/23 10:03:31;;;;;;;3.93;2.60;;;;;;;18.51;84.25;96732.66;127557;1093;27358;-82
2021/08/23 10:06:03;;;;;;;3.75;2.93;;;;;;;18.60;84.02;96725.34;127603;1093;24063;-83
2021/08/23 10:08:35;;;;;;;3.68;2.35;;;;;;;18.67;83.58;96732.89;127525;1093;40030;-82
2021/08/23 10:11:10;;;;;;;4.25;2.93;;;;;;;18.74;83.76;96740.44;127598;1093;22835;-83
2021/08/23 10:13:42;;;;;;;3.05;2.63;;;;;;;18.76;83.26;96732.84;127594;1093;22895;-83
2021/08/23 10:16:14;;;;;;;3.58;2.23;;;;;;;18.80;83.18;96733.75;127590;1092;26401;-83
2021/08/23 10:18:46;;;;;;;3.93;2.58;;;;;;;18.74;82.94;96733.17;127571;1093;23346;-84
2021/08/23 10:21:18;;;;;;;3.58;2.50;;;;;;;18.66;82.65;96725.95;127592;1092;24021;-84
2021/08/23 10:23:52;;;;;;;3.55;2.53;;;;;;;18.58;82.75;96732.13;127573;1092;24579;-83
2021/08/23 10:26:25;;;;;;;2.88;2.30;;;;;;;18.52;82.66;96736.13;127642;1093;24728;-83
2021/08/23 10:29:06;;;;;;;2.73;2.28;;;;;;;18.49;83.03;96729.52;127560;1093;36229;-83
2021/08/23 10:31:41;;;;;;;3.68;2.30;;;;;;;18.48;83.10;96733.31;127628;1093;24491;-83
2021/08/23 10:34:18;;;;;;;3.43;2.23;;;;;;;18.44;82.90;96726.22;127772;1093;25887;-84
2021/08/23 10:36:52;;;;;;;3.63;2.30;;;;;;;18.41;82.93;96733.03;127561;1092;23095;-84
2021/08/23 10:39:25;;;;;;;3.48;2.40;;;;;;;18.40;82.70;96732.24;127616;1093;26997;-83
2021/08/23 10:41:58;;;;;;;3.38;2.45;;;;;;;18.31;82.74;96739.58;127644;1093;24623;-82
2021/08/23 10:44:33;;;;;;;3.80;2.50;;;;;;;18.25;82.69;96735.49;127557;1093;24214;-84
2021/08/23 10:47:10;;;;;;;4.30;2.75;;;;;;;18.19;83.09;96742.16;127607;1093;27011;-84
2021/08/23 10:49:44;;;;;;;4.10;2.33;;;;;;;18.06;82.94;96737.81;127577;1093;25984;-83
2021/08/23 10:52:18;;;;;;;3.30;2.25;;;;;;;17.99;83.22;96738.30;127589;1093;37900;-83
2021/08/23 10:54:51;;;;;;;4.20;2.60;;;;;;;17.95;83.90;96732.02;127588;1093;45772;-83
2021/08/23 10:57:24;;;;;;;3.30;2.10;;;;;;;17.92;83.66;96729.20;127570;1093;24759;-83
2021/08/23 11:00:08;;;;;;;2.77;2.37;;;;;;;17.89;83.79;96721.80;127625;1093;26811;-83
2021/08/23 11:02:41;;;;;;;3.88;2.48;;;;;;;17.85;83.84;96732.36;127642;1093;26283;-83
2021/08/23 11:05:16;;;;;;;3.25;2.30;;;;;;;17.76;84.17;96740.45;127584;1093;27352;-83
2021/08/23 11:07:59;;;;;;;4.05;2.48;;;;;;;17.69;84.23;96732.11;127653;1093;26006;-83
2021/08/23 11:10:33;;;;;;;5.68;2.70;;;;;;;17.70;84.68;96724.84;127616;1093;25706;-83
2021/08/23 11:13:15;;;;;;;3.05;2.30;;;;;;;17.67;84.85;96728.93;127581;1093;23273;-83
2021/08/23 11:15:47;;;;;;;2.95;2.05;;;;;;;17.65;85.04;96733.83;127966;1092;23837;-83
2021/08/23 11:18:21;;;;;;;2.55;1.83;;;;;;;17.68;85.19;96722.48;127976;1092;30713;-83
2021/08/23 11:20:55;;;;;;;4.10;2.60;;;;;;;17.78;85.35;96722.14;127987;1093;24256;-83
2021/08/23 11:23:28;;;;;;;4.43;2.43;;;;;;;17.78;85.08;96722.14;128004;1093;26186;-83
2021/08/23 11:26:01;;;;;;;4.38;2.40;;;;;;;17.88;85.61;96726.38;127999;1093;22802;-82
2021/08/23 11:28:33;;;;;;;4.38;2.83;;;;;;;17.91;85.41;96720.36;127980;1093;25621;-83
2021/08/23 11:31:05;;;;;;;6.58;2.90;;;;;;;17.94;85.78;96729.66;127951;1093;25730;-83
2021/08/23 11:33:40;;;;;;;3.90;2.50;;;;;;;17.95;85.55;96721.28;127600;1093;25062;-83
2021/08/23 11:36:21;;;;;;;4.33;2.35;;;;;;;17.89;85.03;96722.58;127622;1093;23943;-83
2021/08/23 11:38:53;;;;;;;3.93;2.33;;;;;;;17.82;85.17;96724.18;127603;1092;25651;-84
2021/08/23 11:41:25;;;;;;;4.40;2.90;;;;;;;17.78;85.13;96716.78;128090;1093;22961;-83
2021/08/23 11:44:05;;;;;;;4.88;2.88;;;;;;;17.75;85.37;96712.06;127680;1093;22829;-83
2021/08/23 11:46:37;;;;;;;5.15;2.80;;;;;;;17.71;85.64;96711.12;127589;1093;42154;-83
2021/08/23 11:49:09;;;;;;;3.58;2.65;;;;;;;17.75;85.79;96708.60;127594;1093;24661;-83